Terminal Aerodrome Forecast
Issued by NWS

Home | Current Version | Previous Version | Text Only | Print | Product List | Glossary Off
Versions: 1 2 3 4 5 6 7 8 9 10 11 12 13 14 15 16 17

000
FTUS43 KICT 030536
TAFSLN
TAF
KSLN 030536Z 0306/0406 19018G26KT 5SM BR OVC012
      TEMPO 0307/0311 OVC007
     FM031200 23019G27KT P6SM SCT020 BKN250
     FM031700 35019G27KT P6SM BKN030
     FM032300 36013KT P6SM FEW035 SCT250=

USA.gov is the U.S. government's official web portal to all federal, state and local government web resources and services.